sensor_id;sensor_type;location;lat;lon;timestamp;temperature;humidity
65462;DHT22;53236;43.666;18.444;2023-12-20T00:01:24;-2.10;99.90
65462;DHT22;53236;43.666;18.444;2023-12-20T00:03:50;-2.10;99.90
65462;DHT22;53236;43.666;18.444;2023-12-20T00:06:15;-2.00;99.90
65462;DHT22;53236;43.666;18.444;2023-12-20T00:08:41;-2.00;99.90
65462;DHT22;53236;43.666;18.444;2023-12-20T00:11:07;-2.10;99.90
65462;DHT22;53236;43.666;18.444;2023-12-20T00:13:33;-2.10;99.90
65462;DHT22;53236;43.666;18.444;2023-12-20T00:15:58;-2.10;99.90
65462;DHT22;53236;43.666;18.444;2023-12-20T00:18:24;-2.10;99.90
65462;DHT22;53236;43.666;18.444;2023-12-20T00:20:50;-2.20;99.90
65462;DHT22;53236;43.666;18.444;2023-12-20T00:23:16;-2.20;99.90
65462;DHT22;53236;43.666;18.444;2023-12-20T00:25:42;-2.30;99.90
65462;DHT22;53236;43.666;18.444;2023-12-20T00:28:07;-2.30;99.90
65462;DHT22;53236;43.666;18.444;2023-12-20T00:30:33;-2.40;99.90
65462;DHT22;53236;43.666;18.444;2023-12-20T00:32:59;-2.40;99.90
65462;DHT22;53236;43.666;18.444;2023-12-20T00:35:24;-2.40;99.90
65462;DHT22;53236;43.666;18.444;2023-12-20T00:37:50;-2.40;99.90
65462;DHT22;53236;43.666;18.444;2023-12-20T00:40:16;-2.30;99.90
65462;DHT22;53236;43.666;18.444;2023-12-20T00:42:42;-2.30;99.90
65462;DHT22;53236;43.666;18.444;2023-12-20T00:45:08;-2.20;99.90
65462;DHT22;53236;43.666;18.444;2023-12-20T00:47:33;-2.30;99.90
65462;DHT22;53236;43.666;18.444;2023-12-20T00:49:59;-2.40;99.90
65462;DHT22;53236;43.666;18.444;2023-12-20T00:52:25;-2.50;99.90
65462;DHT22;53236;43.666;18.444;2023-12-20T00:54:51;-2.50;99.90
65462;DHT22;53236;43.666;18.444;2023-12-20T00:57:17;-2.40;99.90
65462;DHT22;53236;43.666;18.444;2023-12-20T00:59:43;-2.60;99.90
65462;DHT22;53236;43.666;18.444;2023-12-20T01:02:09;-2.60;99.90
65462;DHT22;53236;43.666;18.444;2023-12-20T01:04:35;-2.60;99.90
65462;DHT22;53236;43.666;18.444;2023-12-20T01:07:01;-2.60;99.90
65462;DHT22;53236;43.666;18.444;2023-12-20T01:09:27;-2.60;99.90
65462;DHT22;53236;43.666;18.444;2023-12-20T01:11:53;-2.60;99.90
65462;DHT22;53236;43.666;18.444;2023-12-20T01:14:19;-2.60;99.90
65462;DHT22;53236;43.666;18.444;2023-12-20T01:16:45;-2.50;99.90
65462;DHT22;53236;43.666;18.444;2023-12-20T01:19:11;-2.60;99.90
65462;DHT22;53236;43.666;18.444;2023-12-20T01:21:37;-2.60;99.90
65462;DHT22;53236;43.666;18.444;2023-12-20T01:24:02;-2.70;99.90
65462;DHT22;53236;43.666;18.444;2023-12-20T01:26:28;-2.60;99.90
65462;DHT22;53236;43.666;18.444;2023-12-20T01:28:54;-2.60;99.90
65462;DHT22;53236;43.666;18.444;2023-12-20T01:31:19;-2.60;99.90
65462;DHT22;53236;43.666;18.444;2023-12-20T01:33:45;-2.70;99.90
65462;DHT22;53236;43.666;18.444;2023-12-20T01:36:11;-2.80;99.90
65462;DHT22;53236;43.666;18.444;2023-12-20T01:38:37;-2.70;99.90
65462;DHT22;53236;43.666;18.444;2023-12-20T01:41:03;-2.80;99.90
65462;DHT22;53236;43.666;18.444;2023-12-20T01:43:30;-2.70;99.90
65462;DHT22;53236;43.666;18.444;2023-12-20T01:45:59;-2.70;99.90
65462;DHT22;53236;43.666;18.444;2023-12-20T01:48:26;-2.70;99.90
65462;DHT22;53236;43.666;18.444;2023-12-20T01:50:53;-2.60;99.90
65462;DHT22;53236;43.666;18.444;2023-12-20T01:53:21;-2.60;99.90
65462;DHT22;53236;43.666;18.444;2023-12-20T01:55:48;-2.60;99.90
65462;DHT22;53236;43.666;18.444;2023-12-20T01:58:16;-2.70;99.90
65462;DHT22;53236;43.666;18.444;2023-12-20T02:00:42;-2.80;99.90
65462;DHT22;53236;43.666;18.444;2023-12-20T02:03:08;-2.80;99.90
65462;DHT22;53236;43.666;18.444;2023-12-20T02:05:35;-2.80;99.90
65462;DHT22;53236;43.666;18.444;2023-12-20T02:08:02;-2.90;99.90
65462;DHT22;53236;43.666;18.444;2023-12-20T02:10:28;-2.90;99.90
65462;DHT22;53236;43.666;18.444;2023-12-20T02:12:54;-2.90;99.90
65462;DHT22;53236;43.666;18.444;2023-12-20T02:15:20;-2.90;99.90
65462;DHT22;53236;43.666;18.444;2023-12-20T02:17:47;-2.90;99.90
65462;DHT22;53236;43.666;18.444;2023-12-20T02:20:14;-2.90;99.90
65462;DHT22;53236;43.666;18.444;2023-12-20T02:22:40;-2.90;99.90
65462;DHT22;53236;43.666;18.444;2023-12-20T02:25:05;-2.90;99.90
65462;DHT22;53236;43.666;18.444;2023-12-20T02:27:31;-2.80;99.90
65462;DHT22;53236;43.666;18.444;2023-12-20T02:29:57;-2.90;99.90
65462;DHT22;53236;43.666;18.444;2023-12-20T02:32:24;-3.00;99.90
65462;DHT22;53236;43.666;18.444;2023-12-20T02:34:54;-3.00;99.90
65462;DHT22;53236;43.666;18.444;2023-12-20T02:37:20;-3.00;99.90
65462;DHT22;53236;43.666;18.444;2023-12-20T02:39:46;-3.10;99.90
65462;DHT22;53236;43.666;18.444;2023-12-20T02:42:11;-3.10;99.90
65462;DHT22;53236;43.666;18.444;2023-12-20T02:44:37;-3.10;99.90
65462;DHT22;53236;43.666;18.444;2023-12-20T02:47:03;-3.10;99.90
65462;DHT22;53236;43.666;18.444;2023-12-20T02:49:29;-3.10;99.90
65462;DHT22;53236;43.666;18.444;2023-12-20T02:51:54;-3.20;99.90
65462;DHT22;53236;43.666;18.444;2023-12-20T02:54:20;-3.10;99.90
65462;DHT22;53236;43.666;18.444;2023-12-20T02:56:46;-3.10;99.90
65462;DHT22;53236;43.666;18.444;2023-12-20T02:59:12;-3.00;99.90
65462;DHT22;53236;43.666;18.444;2023-12-20T03:01:45;-3.10;99.90
65462;DHT22;53236;43.666;18.444;2023-12-20T03:04:11;-3.10;99.90
65462;DHT22;53236;43.666;18.444;2023-12-20T03:06:38;-3.00;99.90
65462;DHT22;53236;43.666;18.444;2023-12-20T03:09:04;-3.00;99.90
65462;DHT22;53236;43.666;18.444;2023-12-20T03:11:30;-3.10;99.90
65462;DHT22;53236;43.666;18.444;2023-12-20T03:13:56;-3.00;99.90
65462;DHT22;53236;43.666;18.444;2023-12-20T03:16:22;-3.00;99.90
65462;DHT22;53236;43.666;18.444;2023-12-20T03:18:48;-3.10;99.90
65462;DHT22;53236;43.666;18.444;2023-12-20T03:21:14;-3.20;99.90
65462;DHT22;53236;43.666;18.444;2023-12-20T03:23:40;-3.20;99.90
65462;DHT22;53236;43.666;18.444;2023-12-20T03:26:09;-3.20;99.90
65462;DHT22;53236;43.666;18.444;2023-12-20T03:28:36;-3.10;99.90
65462;DHT22;53236;43.666;18.444;2023-12-20T03:31:02;-3.20;99.90
65462;DHT22;53236;43.666;18.444;2023-12-20T03:33:28;-3.20;99.90
65462;DHT22;53236;43.666;18.444;2023-12-20T03:35:54;-3.20;99.90
65462;DHT22;53236;43.666;18.444;2023-12-20T03:38:21;-3.10;99.90
65462;DHT22;53236;43.666;18.444;2023-12-20T03:40:46;-3.10;99.90
65462;DHT22;53236;43.666;18.444;2023-12-20T03:43:12;-3.10;99.90
65462;DHT22;53236;43.666;18.444;2023-12-20T03:45:38;-3.00;99.90
65462;DHT22;53236;43.666;18.444;2023-12-20T03:48:04;-3.10;99.90
65462;DHT22;53236;43.666;18.444;2023-12-20T03:50:31;-3.20;99.90
65462;DHT22;53236;43.666;18.444;2023-12-20T03:52:56;-3.30;99.90
65462;DHT22;53236;43.666;18.444;2023-12-20T03:55:22;-3.20;99.90
65462;DHT22;53236;43.666;18.444;2023-12-20T03:57:48;-3.20;99.90
65462;DHT22;53236;43.666;18.444;2023-12-20T04:00:14;-3.20;99.90
65462;DHT22;53236;43.666;18.444;2023-12-20T04:02:41;-3.20;99.90
65462;DHT22;53236;43.666;18.444;2023-12-20T04:05:08;-3.20;99.90
65462;DHT22;53236;43.666;18.444;2023-12-20T04:07:35;-3.10;99.90
65462;DHT22;53236;43.666;18.444;2023-12-20T04:10:02;-3.20;99.90
65462;DHT22;53236;43.666;18.444;2023-12-20T04:12:29;-3.40;99.90
65462;DHT22;53236;43.666;18.444;2023-12-20T04:14:55;-3.30;99.90
65462;DHT22;53236;43.666;18.444;2023-12-20T04:17:21;-3.30;99.90
65462;DHT22;53236;43.666;18.444;2023-12-20T04:19:50;-3.20;99.90
65462;DHT22;53236;43.666;18.444;2023-12-20T04:22:17;-3.20;99.90
65462;DHT22;53236;43.666;18.444;2023-12-20T04:24:43;-3.30;99.90
65462;DHT22;53236;43.666;18.444;2023-12-20T04:27:09;-3.30;99.90
65462;DHT22;53236;43.666;18.444;2023-12-20T04:29:35;-3.20;99.90
65462;DHT22;53236;43.666;18.444;2023-12-20T04:32:01;-3.30;99.90
65462;DHT22;53236;43.666;18.444;2023-12-20T04:34:26;-3.20;99.90
65462;DHT22;53236;43.666;18.444;2023-12-20T04:36:53;-3.40;99.90
65462;DHT22;53236;43.666;18.444;2023-12-20T04:39:19;-3.30;99.90
65462;DHT22;53236;43.666;18.444;2023-12-20T04:41:44;-3.30;99.90
65462;DHT22;53236;43.666;18.444;2023-12-20T04:44:10;-3.30;99.90
65462;DHT22;53236;43.666;18.444;2023-12-20T04:46:36;-3.30;99.90
65462;DHT22;53236;43.666;18.444;2023-12-20T04:49:02;-3.30;99.90
65462;DHT22;53236;43.666;18.444;2023-12-20T04:51:27;-3.20;99.90
65462;DHT22;53236;43.666;18.444;2023-12-20T04:53:53;-3.30;99.90
65462;DHT22;53236;43.666;18.444;2023-12-20T04:56:19;-3.30;99.90
65462;DHT22;53236;43.666;18.444;2023-12-20T04:58:45;-3.30;99.90
65462;DHT22;53236;43.666;18.444;2023-12-20T05:01:11;-3.30;99.90
65462;DHT22;53236;43.666;18.444;2023-12-20T05:03:37;-3.30;99.90
65462;DHT22;53236;43.666;18.444;2023-12-20T05:06:03;-3.30;99.90
65462;DHT22;53236;43.666;18.444;2023-12-20T05:08:29;-3.30;99.90
65462;DHT22;53236;43.666;18.444;2023-12-20T05:10:55;-3.40;99.90
65462;DHT22;53236;43.666;18.444;2023-12-20T05:13:21;-3.40;99.90
65462;DHT22;53236;43.666;18.444;2023-12-20T05:15:47;-3.40;99.90
65462;DHT22;53236;43.666;18.444;2023-12-20T05:18:13;-3.40;99.90
65462;DHT22;53236;43.666;18.444;2023-12-20T05:20:39;-3.30;99.90
65462;DHT22;53236;43.666;18.444;2023-12-20T05:23:05;-3.30;99.90
65462;DHT22;53236;43.666;18.444;2023-12-20T05:25:32;-3.30;99.90
65462;DHT22;53236;43.666;18.444;2023-12-20T05:27:58;-3.30;99.90
65462;DHT22;53236;43.666;18.444;2023-12-20T05:30:23;-3.20;99.90
65462;DHT22;53236;43.666;18.444;2023-12-20T05:32:49;-3.30;99.90
65462;DHT22;53236;43.666;18.444;2023-12-20T05:35:15;-3.30;99.90
65462;DHT22;53236;43.666;18.444;2023-12-20T05:37:41;-3.30;99.90
65462;DHT22;53236;43.666;18.444;2023-12-20T05:40:08;-3.20;99.90
65462;DHT22;53236;43.666;18.444;2023-12-20T05:42:37;-3.20;99.90
65462;DHT22;53236;43.666;18.444;2023-12-20T05:45:04;-3.10;99.90
65462;DHT22;53236;43.666;18.444;2023-12-20T05:47:30;-3.10;99.90
65462;DHT22;53236;43.666;18.444;2023-12-20T05:49:56;-3.20;99.90
65462;DHT22;53236;43.666;18.444;2023-12-20T05:52:21;-3.20;99.90
65462;DHT22;53236;43.666;18.444;2023-12-20T05:54:47;-3.20;99.90
65462;DHT22;53236;43.666;18.444;2023-12-20T05:57:13;-3.30;99.90
65462;DHT22;53236;43.666;18.444;2023-12-20T05:59:39;-3.30;99.90
65462;DHT22;53236;43.666;18.444;2023-12-20T06:02:05;-3.30;99.90
65462;DHT22;53236;43.666;18.444;2023-12-20T06:04:31;-3.30;99.90
65462;DHT22;53236;43.666;18.444;2023-12-20T06:06:57;-3.30;99.90
65462;DHT22;53236;43.666;18.444;2023-12-20T06:09:22;-3.30;99.90
65462;DHT22;53236;43.666;18.444;2023-12-20T06:11:48;-3.30;99.90
65462;DHT22;53236;43.666;18.444;2023-12-20T06:14:14;-3.20;99.90
65462;DHT22;53236;43.666;18.444;2023-12-20T06:16:39;-3.20;99.90
65462;DHT22;53236;43.666;18.444;2023-12-20T06:19:05;-3.20;99.90
65462;DHT22;53236;43.666;18.444;2023-12-20T06:21:31;-3.20;99.90
65462;DHT22;53236;43.666;18.444;2023-12-20T06:23:59;-3.10;99.90
65462;DHT22;53236;43.666;18.444;2023-12-20T06:26:24;-3.10;99.90
65462;DHT22;53236;43.666;18.444;2023-12-20T06:28:50;-2.90;99.90
65462;DHT22;53236;43.666;18.444;2023-12-20T06:31:16;-2.80;99.90
65462;DHT22;53236;43.666;18.444;2023-12-20T06:33:43;-2.70;99.90
65462;DHT22;53236;43.666;18.444;2023-12-20T06:36:11;-2.60;99.90
65462;DHT22;53236;43.666;18.444;2023-12-20T06:38:38;-2.60;99.90
65462;DHT22;53236;43.666;18.444;2023-12-20T06:41:04;-2.50;99.90
65462;DHT22;53236;43.666;18.444;2023-12-20T06:43:30;-2.60;99.90
65462;DHT22;53236;43.666;18.444;2023-12-20T06:45:56;-2.60;99.90
65462;DHT22;53236;43.666;18.444;2023-12-20T06:48:22;-2.60;99.90
65462;DHT22;53236;43.666;18.444;2023-12-20T06:50:48;-2.60;99.90
65462;DHT22;53236;43.666;18.444;2023-12-20T06:53:14;-2.50;99.90
65462;DHT22;53236;43.666;18.444;2023-12-20T06:55:39;-2.50;99.90
65462;DHT22;53236;43.666;18.444;2023-12-20T06:58:05;-2.40;99.90
65462;DHT22;53236;43.666;18.444;2023-12-20T07:00:32;-2.30;99.90
65462;DHT22;53236;43.666;18.444;2023-12-20T07:02:59;-2.20;99.90
65462;DHT22;53236;43.666;18.444;2023-12-20T07:05:24;-2.20;99.90
65462;DHT22;53236;43.666;18.444;2023-12-20T07:07:50;-2.10;99.90
65462;DHT22;53236;43.666;18.444;2023-12-20T07:10:16;-2.00;99.90
65462;DHT22;53236;43.666;18.444;2023-12-20T07:12:42;-1.90;99.90
65462;DHT22;53236;43.666;18.444;2023-12-20T07:15:08;-1.70;99.90
65462;DHT22;53236;43.666;18.444;2023-12-20T07:17:34;-1.60;99.90
65462;DHT22;53236;43.666;18.444;2023-12-20T07:20:00;-1.40;99.90
65462;DHT22;53236;43.666;18.444;2023-12-20T07:22:32;-1.30;99.90
65462;DHT22;53236;43.666;18.444;2023-12-20T07:24:59;-0.90;99.90
65462;DHT22;53236;43.666;18.444;2023-12-20T07:27:25;-0.10;99.90
65462;DHT22;53236;43.666;18.444;2023-12-20T07:29:51;1.70;99.90
65462;DHT22;53236;43.666;18.444;2023-12-20T07:32:16;4.20;93.70
65462;DHT22;53236;43.666;18.444;2023-12-20T07:34:42;7.10;78.20
65462;DHT22;53236;43.666;18.444;2023-12-20T07:37:08;9.40;65.20
65462;DHT22;53236;43.666;18.444;2023-12-20T07:39:36;10.30;59.50
65462;DHT22;53236;43.666;18.444;2023-12-20T07:42:01;11.40;58.20
65462;DHT22;53236;43.666;18.444;2023-12-20T07:44:27;12.40;54.20
65462;DHT22;53236;43.666;18.444;2023-12-20T07:46:53;13.60;53.00
65462;DHT22;53236;43.666;18.444;2023-12-20T07:49:19;14.90;51.00
65462;DHT22;53236;43.666;18.444;2023-12-20T07:51:45;16.70;48.40
65462;DHT22;53236;43.666;18.444;2023-12-20T07:54:11;17.30;44.40
65462;DHT22;53236;43.666;18.444;2023-12-20T07:56:36;15.90;44.60
65462;DHT22;53236;43.666;18.444;2023-12-20T07:59:02;14.70;46.30
65462;DHT22;53236;43.666;18.444;2023-12-20T08:01:28;12.90;48.10
65462;DHT22;53236;43.666;18.444;2023-12-20T08:03:54;11.50;51.20
65462;DHT22;53236;43.666;18.444;2023-12-20T08:06:19;11.10;52.70
65462;DHT22;53236;43.666;18.444;2023-12-20T08:08:45;12.60;52.90
65462;DHT22;53236;43.666;18.444;2023-12-20T08:11:11;16.10;50.90
65462;DHT22;53236;43.666;18.444;2023-12-20T08:13:36;19.70;46.70
65462;DHT22;53236;43.666;18.444;2023-12-20T08:16:02;22.60;40.80
65462;DHT22;53236;43.666;18.444;2023-12-20T08:18:28;23.00;40.20
65462;DHT22;53236;43.666;18.444;2023-12-20T08:20:54;23.20;38.50
65462;DHT22;53236;43.666;18.444;2023-12-20T08:23:20;25.10;37.90
65462;DHT22;53236;43.666;18.444;2023-12-20T08:25:49;26.00;36.30
65462;DHT22;53236;43.666;18.444;2023-12-20T08:28:15;24.20;35.50
65462;DHT22;53236;43.666;18.444;2023-12-20T08:30:41;22.40;36.90
65462;DHT22;53236;43.666;18.444;2023-12-20T08:33:07;22.00;38.00
65462;DHT22;53236;43.666;18.444;2023-12-20T08:35:39;21.80;38.40
65462;DHT22;53236;43.666;18.444;2023-12-20T08:38:05;21.90;38.50
65462;DHT22;53236;43.666;18.444;2023-12-20T08:40:31;22.80;38.00
65462;DHT22;53236;43.666;18.444;2023-12-20T08:42:57;23.70;37.50
65462;DHT22;53236;43.666;18.444;2023-12-20T08:45:22;25.30;36.80
65462;DHT22;53236;43.666;18.444;2023-12-20T08:47:48;28.00;36.00
65462;DHT22;53236;43.666;18.444;2023-12-20T08:50:14;29.50;34.20
65462;DHT22;53236;43.666;18.444;2023-12-20T08:52:40;30.90;33.20
65462;DHT22;53236;43.666;18.444;2023-12-20T08:55:07;31.70;31.90
65462;DHT22;53236;43.666;18.444;2023-12-20T08:57:33;31.90;30.90
65462;DHT22;53236;43.666;18.444;2023-12-20T08:59:59;32.10;31.90
65462;DHT22;53236;43.666;18.444;2023-12-20T09:02:25;33.50;31.00
65462;DHT22;53236;43.666;18.444;2023-12-20T09:04:50;33.70;30.20
65462;DHT22;53236;43.666;18.444;2023-12-20T09:07:23;34.60;30.40
65462;DHT22;53236;43.666;18.444;2023-12-20T09:09:49;35.40;29.70
65462;DHT22;53236;43.666;18.444;2023-12-20T09:12:16;34.70;29.00
65462;DHT22;53236;43.666;18.444;2023-12-20T09:14:42;33.00;28.90
65462;DHT22;53236;43.666;18.444;2023-12-20T09:17:08;31.60;29.80
65462;DHT22;53236;43.666;18.444;2023-12-20T09:19:34;32.40;29.80
65462;DHT22;53236;43.666;18.444;2023-12-20T09:22:01;33.00;29.80
65462;DHT22;53236;43.666;18.444;2023-12-20T09:24:27;34.60;30.00
65462;DHT22;53236;43.666;18.444;2023-12-20T09:26:53;36.00;30.00
65462;DHT22;53236;43.666;18.444;2023-12-20T09:29:18;35.80;29.70
65462;DHT22;53236;43.666;18.444;2023-12-20T09:31:44;36.50;29.10
65462;DHT22;53236;43.666;18.444;2023-12-20T09:34:12;37.00;29.20
65462;DHT22;53236;43.666;18.444;2023-12-20T09:36:37;37.00;29.30
65462;DHT22;53236;43.666;18.444;2023-12-20T09:39:06;37.40;29.10
65462;DHT22;53236;43.666;18.444;2023-12-20T09:41:36;37.40;28.70
65462;DHT22;53236;43.666;18.444;2023-12-20T09:44:03;36.80;28.90
65462;DHT22;53236;43.666;18.444;2023-12-20T09:46:29;36.70;29.50
65462;DHT22;53236;43.666;18.444;2023-12-20T09:48:59;37.20;29.30
65462;DHT22;53236;43.666;18.444;2023-12-20T09:51:28;37.20;28.80
65462;DHT22;53236;43.666;18.444;2023-12-20T09:53:54;38.40;29.20
65462;DHT22;53236;43.666;18.444;2023-12-20T09:56:23;39.40;28.60
65462;DHT22;53236;43.666;18.444;2023-12-20T09:58:50;39.70;28.80
65462;DHT22;53236;43.666;18.444;2023-12-20T10:01:16;38.30;28.00
65462;DHT22;53236;43.666;18.444;2023-12-20T10:03:42;38.50;28.50
65462;DHT22;53236;43.666;18.444;2023-12-20T10:06:08;36.70;28.40
65462;DHT22;53236;43.666;18.444;2023-12-20T10:08:34;34.60;29.00
65462;DHT22;53236;43.666;18.444;2023-12-20T10:11:01;33.90;29.80
65462;DHT22;53236;43.666;18.444;2023-12-20T10:13:28;33.50;29.70
65462;DHT22;53236;43.666;18.444;2023-12-20T10:15:55;34.10;28.90
65462;DHT22;53236;43.666;18.444;2023-12-20T10:18:21;35.20;28.80
65462;DHT22;53236;43.666;18.444;2023-12-20T10:20:47;37.40;28.50
65462;DHT22;53236;43.666;18.444;2023-12-20T10:23:15;39.30;28.10
65462;DHT22;53236;43.666;18.444;2023-12-20T10:25:41;40.90;27.90
65462;DHT22;53236;43.666;18.444;2023-12-20T10:28:14;41.60;27.80
65462;DHT22;53236;43.666;18.444;2023-12-20T10:30:42;39.90;27.40
65462;DHT22;53236;43.666;18.444;2023-12-20T10:33:09;35.90;27.80
65462;DHT22;53236;43.666;18.444;2023-12-20T10:35:36;32.20;28.70
65462;DHT22;53236;43.666;18.444;2023-12-20T10:38:05;28.80;30.20
65462;DHT22;53236;43.666;18.444;2023-12-20T10:40:35;26.60;32.20
65462;DHT22;53236;43.666;18.444;2023-12-20T10:43:04;24.80;33.60
65462;DHT22;53236;43.666;18.444;2023-12-20T10:45:30;23.00;37.10
65462;DHT22;53236;43.666;18.444;2023-12-20T10:47:58;22.40;37.30
65462;DHT22;53236;43.666;18.444;2023-12-20T10:50:27;22.40;38.00
65462;DHT22;53236;43.666;18.444;2023-12-20T10:52:54;23.60;37.10
65462;DHT22;53236;43.666;18.444;2023-12-20T10:55:25;26.70;34.80
65462;DHT22;53236;43.666;18.444;2023-12-20T10:58:09;27.70;33.70
65462;DHT22;53236;43.666;18.444;2023-12-20T11:00:39;29.20;33.90
65462;DHT22;53236;43.666;18.444;2023-12-20T11:03:06;29.00;33.10
65462;DHT22;53236;43.666;18.444;2023-12-20T11:05:44;30.20;33.50
65462;DHT22;53236;43.666;18.444;2023-12-20T11:08:26;33.00;32.40
65462;DHT22;53236;43.666;18.444;2023-12-20T11:13:43;32.20;31.40
65462;DHT22;53236;43.666;18.444;2023-12-20T11:16:13;32.80;30.40
65462;DHT22;53236;43.666;18.444;2023-12-20T11:18:40;30.90;30.30
65462;DHT22;53236;43.666;18.444;2023-12-20T11:21:06;31.90;32.00
65462;DHT22;53236;43.666;18.444;2023-12-20T11:23:32;32.60;29.90
65462;DHT22;53236;43.666;18.444;2023-12-20T11:25:59;33.20;28.50
65462;DHT22;53236;43.666;18.444;2023-12-20T11:28:27;33.00;27.90
65462;DHT22;53236;43.666;18.444;2023-12-20T11:30:55;33.00;28.00
65462;DHT22;53236;43.666;18.444;2023-12-20T11:35:59;33.90;28.20
65462;DHT22;53236;43.666;18.444;2023-12-20T11:38:25;33.40;28.00
65462;DHT22;53236;43.666;18.444;2023-12-20T11:40:54;31.20;27.80
65462;DHT22;53236;43.666;18.444;2023-12-20T11:43:36;28.40;28.10
65462;DHT22;53236;43.666;18.444;2023-12-20T11:46:06;24.80;29.80
65462;DHT22;53236;43.666;18.444;2023-12-20T11:48:33;22.30;32.30
65462;DHT22;53236;43.666;18.444;2023-12-20T11:51:00;20.60;35.00
65462;DHT22;53236;43.666;18.444;2023-12-20T11:53:25;19.30;36.10
65462;DHT22;53236;43.666;18.444;2023-12-20T11:55:51;18.50;37.40
65462;DHT22;53236;43.666;18.444;2023-12-20T11:58:19;17.90;38.90
65462;DHT22;53236;43.666;18.444;2023-12-20T12:00:44;17.30;39.10
65462;DHT22;53236;43.666;18.444;2023-12-20T12:03:10;16.90;40.20
65462;DHT22;53236;43.666;18.444;2023-12-20T12:05:40;16.20;40.50
65462;DHT22;53236;43.666;18.444;2023-12-20T12:08:06;15.50;41.00
65462;DHT22;53236;43.666;18.444;2023-12-20T12:10:31;15.00;41.60
65462;DHT22;53236;43.666;18.444;2023-12-20T12:12:57;14.80;42.50
65462;DHT22;53236;43.666;18.444;2023-12-20T12:15:23;14.60;42.90
65462;DHT22;53236;43.666;18.444;2023-12-20T12:17:56;14.50;43.30
65462;DHT22;53236;43.666;18.444;2023-12-20T12:20:22;14.20;44.90
65462;DHT22;53236;43.666;18.444;2023-12-20T12:23:02;14.20;44.70
65462;DHT22;53236;43.666;18.444;2023-12-20T12:25:30;14.10;44.70
65462;DHT22;53236;43.666;18.444;2023-12-20T12:27:59;14.30;45.20
65462;DHT22;53236;43.666;18.444;2023-12-20T12:30:25;14.50;45.20
65462;DHT22;53236;43.666;18.444;2023-12-20T12:32:55;14.30;45.80
65462;DHT22;53236;43.666;18.444;2023-12-20T12:35:22;14.20;48.30
65462;DHT22;53236;43.666;18.444;2023-12-20T12:37:47;14.20;48.50
65462;DHT22;53236;43.666;18.444;2023-12-20T12:40:15;14.20;47.40
65462;DHT22;53236;43.666;18.444;2023-12-20T12:42:44;14.10;48.00
65462;DHT22;53236;43.666;18.444;2023-12-20T12:45:10;14.00;47.40
65462;DHT22;53236;43.666;18.444;2023-12-20T12:47:40;13.90;48.40
65462;DHT22;53236;43.666;18.444;2023-12-20T12:50:06;13.80;48.20
65462;DHT22;53236;43.666;18.444;2023-12-20T12:52:32;13.70;48.30
65462;DHT22;53236;43.666;18.444;2023-12-20T12:54:58;13.50;49.80
65462;DHT22;53236;43.666;18.444;2023-12-20T12:57:24;13.30;49.50
65462;DHT22;53236;43.666;18.444;2023-12-20T12:59:49;13.10;51.40
65462;DHT22;53236;43.666;18.444;2023-12-20T13:02:15;12.80;50.50
65462;DHT22;53236;43.666;18.444;2023-12-20T13:04:41;12.40;51.80
65462;DHT22;53236;43.666;18.444;2023-12-20T13:07:09;12.30;51.90
65462;DHT22;53236;43.666;18.444;2023-12-20T13:09:38;12.00;52.90
65462;DHT22;53236;43.666;18.444;2023-12-20T13:12:05;11.90;53.50
65462;DHT22;53236;43.666;18.444;2023-12-20T13:14:34;11.70;53.20
65462;DHT22;53236;43.666;18.444;2023-12-20T13:17:02;11.70;53.80
65462;DHT22;53236;43.666;18.444;2023-12-20T13:19:29;11.60;55.00
65462;DHT22;53236;43.666;18.444;2023-12-20T13:21:56;11.60;55.50
65462;DHT22;53236;43.666;18.444;2023-12-20T13:24:21;11.50;54.30
65462;DHT22;53236;43.666;18.444;2023-12-20T13:26:47;11.50;54.10
65462;DHT22;53236;43.666;18.444;2023-12-20T13:29:13;11.40;54.50
65462;DHT22;53236;43.666;18.444;2023-12-20T13:31:39;11.40;56.20
65462;DHT22;53236;43.666;18.444;2023-12-20T13:34:06;11.30;55.70
65462;DHT22;53236;43.666;18.444;2023-12-20T13:36:32;11.20;55.80
65462;DHT22;53236;43.666;18.444;2023-12-20T13:38:57;11.00;56.10
65462;DHT22;53236;43.666;18.444;2023-12-20T13:41:23;10.90;56.40
65462;DHT22;53236;43.666;18.444;2023-12-20T13:43:49;10.80;56.20
65462;DHT22;53236;43.666;18.444;2023-12-20T13:46:15;10.70;55.90
65462;DHT22;53236;43.666;18.444;2023-12-20T13:48:40;10.60;56.90
65462;DHT22;53236;43.666;18.444;2023-12-20T13:51:07;10.40;56.90
65462;DHT22;53236;43.666;18.444;2023-12-20T13:53:33;10.30;57.40
65462;DHT22;53236;43.666;18.444;2023-12-20T13:55:59;10.10;57.00
65462;DHT22;53236;43.666;18.444;2023-12-20T13:58:25;10.00;58.90
65462;DHT22;53236;43.666;18.444;2023-12-20T14:00:51;9.90;58.50
65462;DHT22;53236;43.666;18.444;2023-12-20T14:03:17;9.80;58.90
65462;DHT22;53236;43.666;18.444;2023-12-20T14:05:43;9.50;59.10
65462;DHT22;53236;43.666;18.444;2023-12-20T14:08:08;9.30;58.30
65462;DHT22;53236;43.666;18.444;2023-12-20T14:10:35;9.20;58.80
65462;DHT22;53236;43.666;18.444;2023-12-20T14:13:01;9.20;59.30
65462;DHT22;53236;43.666;18.444;2023-12-20T14:15:27;9.20;60.00
65462;DHT22;53236;43.666;18.444;2023-12-20T14:17:52;9.10;59.70
65462;DHT22;53236;43.666;18.444;2023-12-20T14:20:18;8.90;59.10
65462;DHT22;53236;43.666;18.444;2023-12-20T14:22:44;8.80;59.20
65462;DHT22;53236;43.666;18.444;2023-12-20T14:25:14;8.70;60.10
65462;DHT22;53236;43.666;18.444;2023-12-20T14:27:41;8.50;60.80
65462;DHT22;53236;43.666;18.444;2023-12-20T14:30:09;8.20;62.20
65462;DHT22;53236;43.666;18.444;2023-12-20T14:32:35;7.90;64.20
65462;DHT22;53236;43.666;18.444;2023-12-20T14:35:08;7.60;65.60
65462;DHT22;53236;43.666;18.444;2023-12-20T14:37:37;7.30;66.40
65462;DHT22;53236;43.666;18.444;2023-12-20T14:40:06;7.10;67.60
65462;DHT22;53236;43.666;18.444;2023-12-20T14:42:35;7.00;67.90
65462;DHT22;53236;43.666;18.444;2023-12-20T14:45:01;6.80;68.70
65462;DHT22;53236;43.666;18.444;2023-12-20T14:47:27;6.70;68.50
65462;DHT22;53236;43.666;18.444;2023-12-20T14:49:53;6.50;69.80
65462;DHT22;53236;43.666;18.444;2023-12-20T14:52:18;6.50;69.80
65462;DHT22;53236;43.666;18.444;2023-12-20T14:54:45;6.30;70.50
65462;DHT22;53236;43.666;18.444;2023-12-20T14:57:10;6.20;70.50
65462;DHT22;53236;43.666;18.444;2023-12-20T14:59:36;6.20;71.10
65462;DHT22;53236;43.666;18.444;2023-12-20T15:02:02;6.00;71.30
65462;DHT22;53236;43.666;18.444;2023-12-20T15:04:33;5.90;73.20
65462;DHT22;53236;43.666;18.444;2023-12-20T15:06:59;5.70;77.10
65462;DHT22;53236;43.666;18.444;2023-12-20T15:09:26;5.50;82.00
65462;DHT22;53236;43.666;18.444;2023-12-20T15:11:54;5.30;85.50
65462;DHT22;53236;43.666;18.444;2023-12-20T15:14:20;5.20;90.00
65462;DHT22;53236;43.666;18.444;2023-12-20T15:16:46;5.10;93.20
65462;DHT22;53236;43.666;18.444;2023-12-20T15:19:13;4.90;96.40